createdAt,value
2017-09-11T00:01:50.570Z,88.90
2017-09-11T00:04:18.278Z,88.90
2017-09-11T00:06:46.920Z,88.80
2017-09-11T00:09:14.631Z,88.80
2017-09-11T00:11:42.345Z,88.60
2017-09-11T00:14:10.213Z,88.70
2017-09-11T00:16:38.080Z,88.40
2017-09-11T00:19:05.783Z,88.20
2017-09-11T00:21:34.430Z,88.30
2017-09-11T00:24:02.298Z,88.30
2017-09-11T00:26:30.164Z,88.50
2017-09-11T00:28:58.031Z,88.80
2017-09-11T00:31:25.898Z,89.40
2017-09-11T00:33:53.621Z,89.60
2017-09-11T00:36:21.341Z,89.90
2017-09-11T00:38:49.192Z,90.10
2017-09-11T00:41:17.049Z,90.20
2017-09-11T00:43:44.927Z,90.20
2017-09-11T00:46:12.794Z,90.10
2017-09-11T00:48:40.665Z,90.20
2017-09-11T00:51:08.529Z,90.30
2017-09-11T00:53:36.499Z,90.20
2017-09-11T00:56:04.366Z,90.20
2017-09-11T00:58:32.233Z,90.40
2017-09-11T01:01:00.101Z,90.60
2017-09-11T01:03:27.968Z,90.60
2017-09-11T01:05:55.835Z,90.60
2017-09-11T01:08:23.573Z,90.50
2017-09-11T01:10:51.468Z,90.40
2017-09-11T01:13:19.206Z,90.30
2017-09-11T01:15:46.918Z,90.30
2017-09-11T01:18:14.763Z,90.30
2017-09-11T01:20:42.553Z,90.40
2017-09-11T01:23:10.321Z,90.40
2017-09-11T01:25:38.097Z,90.30
2017-09-11T01:28:06.641Z,90.10
2017-09-11T01:30:34.409Z,90.10
2017-09-11T01:33:02.273Z,90.00
2017-09-11T01:35:30.140Z,89.70
2017-09-11T01:37:57.865Z,89.60
2017-09-11T01:40:25.591Z,89.80
2017-09-11T01:42:53.435Z,89.80
2017-09-11T01:45:21.146Z,89.50
2017-09-11T01:47:49.785Z,89.20
2017-09-11T01:50:17.651Z,89.20
2017-09-11T01:52:45.518Z,89.20
2017-09-11T01:55:13.386Z,89.00
2017-09-11T01:57:41.254Z,88.60
2017-09-11T02:00:09.120Z,88.80
2017-09-11T02:02:36.988Z,88.60
2017-09-11T02:05:04.856Z,88.70
2017-09-11T02:07:32.722Z,88.70
2017-09-11T02:10:00.590Z,88.80
2017-09-11T02:12:28.457Z,88.90
2017-09-11T02:14:56.325Z,88.50
2017-09-11T02:17:24.192Z,88.50
2017-09-11T02:19:52.059Z,88.70
2017-09-11T02:22:19.926Z,88.30
2017-09-11T02:24:47.793Z,88.30
2017-09-11T02:27:15.661Z,88.10
2017-09-11T02:29:43.528Z,87.70
2017-09-11T02:32:11.396Z,87.30
2017-09-11T02:34:39.263Z,87.40
2017-09-11T02:37:07.130Z,87.70
2017-09-11T02:39:34.871Z,87.40
2017-09-11T02:42:02.583Z,86.90
2017-09-11T02:44:30.289Z,86.60
2017-09-11T02:46:58.093Z,86.90
2017-09-11T02:49:25.960Z,86.80
2017-09-11T02:51:53.825Z,86.30
2017-09-11T02:54:21.690Z,86.60
2017-09-11T02:56:49.558Z,86.60
2017-09-11T02:59:17.424Z,86.30
2017-09-11T03:01:45.292Z,86.40
2017-09-11T03:04:13.158Z,86.10
2017-09-11T03:06:41.026Z,86.60
2017-09-11T03:09:08.892Z,86.10
2017-09-11T03:11:36.600Z,85.70
2017-09-11T03:14:05.073Z,85.80
2017-09-11T03:16:33.723Z,85.70
2017-09-11T03:19:01.591Z,85.70
2017-09-11T03:21:29.457Z,86.10
2017-09-11T03:23:57.165Z,85.80
2017-09-11T03:26:25.806Z,85.90
2017-09-11T03:28:53.510Z,85.90
2017-09-11T03:31:21.985Z,86.10
2017-09-11T03:33:49.819Z,86.10
2017-09-11T03:36:17.686Z,86.30
2017-09-11T03:38:45.554Z,86.10
2017-09-11T03:41:13.420Z,86.20
2017-09-11T03:43:41.289Z,86.30
2017-09-11T03:46:09.155Z,85.90
2017-09-11T03:48:37.024Z,85.70
2017-09-11T03:51:04.891Z,86.20
2017-09-11T03:53:32.758Z,85.40
2017-09-11T03:56:00.626Z,85.30
2017-09-11T03:58:28.493Z,85.50
2017-09-11T04:00:56.359Z,86.00
2017-09-11T04:03:24.151Z,85.70
2017-09-11T04:05:51.991Z,85.90
2017-09-11T04:08:19.860Z,86.00
2017-09-11T04:10:47.728Z,86.00
2017-09-11T04:13:15.592Z,85.90
2017-09-11T04:15:43.459Z,85.80
2017-09-11T04:18:11.328Z,86.00
2017-09-11T04:20:39.195Z,85.60
2017-09-11T04:23:07.062Z,85.70
2017-09-11T04:25:34.929Z,86.00
2017-09-11T04:28:02.797Z,86.00
2017-09-11T04:30:44.391Z,86.10
2017-09-11T04:33:12.253Z,86.00
2017-09-11T04:35:40.120Z,86.10
2017-09-11T04:38:07.989Z,86.50
2017-09-11T04:40:35.855Z,86.90
2017-09-11T04:43:03.723Z,87.00
2017-09-11T04:45:31.590Z,86.50
2017-09-11T04:47:59.458Z,86.50
2017-09-11T04:50:27.325Z,86.20
2017-09-11T04:52:55.192Z,85.90
2017-09-11T04:55:23.059Z,85.80
2017-09-11T04:57:50.926Z,86.10
2017-09-11T05:00:18.794Z,86.10
2017-09-11T05:02:46.660Z,86.30
2017-09-11T05:05:14.528Z,85.90
2017-09-11T05:07:42.395Z,85.80
2017-09-11T05:10:10.263Z,85.90
2017-09-11T05:12:38.131Z,86.00
2017-09-11T05:15:05.997Z,86.00
2017-09-11T05:17:33.864Z,86.10
2017-09-11T05:20:01.732Z,86.30
2017-09-11T05:22:29.600Z,86.80
2017-09-11T05:24:57.467Z,87.50
2017-09-11T05:27:25.333Z,87.80
2017-09-11T05:29:53.099Z,87.90
2017-09-11T05:32:20.966Z,88.20
2017-09-11T05:34:48.833Z,88.70
2017-09-11T05:37:16.701Z,89.20
2017-09-11T05:39:44.568Z,89.30
2017-09-11T05:42:12.435Z,89.70
2017-09-11T05:44:40.302Z,90.20
2017-09-11T05:47:08.179Z,90.50
2017-09-11T05:49:36.040Z,90.60
2017-09-11T05:52:03.906Z,90.90
2017-09-11T05:54:31.780Z,91.10
2017-09-11T05:56:59.643Z,91.30
2017-09-11T05:59:27.508Z,91.10
2017-09-11T06:01:55.378Z,91.30
2017-09-11T06:04:23.243Z,91.70
2017-09-11T06:06:51.109Z,91.90
2017-09-11T06:09:18.976Z,92.30
2017-09-11T06:11:46.842Z,92.60
2017-09-11T06:14:14.710Z,92.90
2017-09-11T06:16:42.577Z,93.00
2017-09-11T06:19:10.444Z,93.00
2017-09-11T06:21:38.313Z,93.00
2017-09-11T06:26:40.297Z,93.40
2017-09-11T06:29:08.160Z,93.40
2017-09-11T06:31:36.027Z,93.10
2017-09-11T06:34:03.895Z,93.20
2017-09-11T06:36:31.763Z,93.20
2017-09-11T06:38:59.636Z,93.20
2017-09-11T06:41:28.213Z,93.20
2017-09-11T06:43:56.081Z,93.20
2017-09-11T06:46:23.879Z,93.00
2017-09-11T06:48:52.430Z,93.00
2017-09-11T06:51:20.303Z,92.80
2017-09-11T06:53:48.165Z,92.30
2017-09-11T06:56:16.031Z,92.60
2017-09-11T06:58:43.899Z,92.30
2017-09-11T07:01:11.767Z,92.10
2017-09-11T07:03:39.634Z,92.10
2017-09-11T07:06:07.502Z,92.30
2017-09-11T07:08:35.370Z,92.00
2017-09-11T07:11:03.237Z,91.90
2017-09-11T07:13:41.036Z,91.80
2017-09-11T07:16:08.904Z,92.00
2017-09-11T07:18:36.772Z,92.00
2017-09-11T07:21:04.638Z,92.00
2017-09-11T07:23:32.439Z,92.30
2017-09-11T07:26:00.987Z,91.80
2017-09-11T07:28:28.855Z,91.80
2017-09-11T07:30:56.722Z,91.40
2017-09-11T07:33:24.426Z,91.50
2017-09-11T07:35:53.071Z,91.70
2017-09-11T07:38:20.938Z,91.70
2017-09-11T07:40:48.805Z,91.80
2017-09-11T07:43:16.673Z,91.80
2017-09-11T07:45:44.539Z,91.80
2017-09-11T07:48:12.406Z,91.70
2017-09-11T07:50:40.273Z,91.50
2017-09-11T07:53:08.141Z,91.70
2017-09-11T07:55:35.851Z,91.90
2017-09-11T07:58:04.490Z,91.80
2017-09-11T08:00:32.357Z,91.70
2017-09-11T08:03:00.225Z,91.60
2017-09-11T08:05:28.092Z,91.70
2017-09-11T08:07:55.959Z,91.90
2017-09-11T08:10:23.827Z,91.80
2017-09-11T08:12:51.694Z,91.90
2017-09-11T08:15:19.561Z,91.90
2017-09-11T08:17:47.429Z,91.60
2017-09-11T08:20:15.296Z,91.80
2017-09-11T08:22:43.163Z,91.70
2017-09-11T08:25:11.031Z,91.60
2017-09-11T08:27:38.897Z,91.50
2017-09-11T08:30:06.764Z,91.50
2017-09-11T08:32:34.632Z,91.70
2017-09-11T08:35:02.502Z,91.40
2017-09-11T08:37:30.367Z,91.10
2017-09-11T08:39:58.086Z,91.20
2017-09-11T08:42:25.897Z,91.30
2017-09-11T08:44:53.765Z,91.40
2017-09-11T08:47:21.466Z,91.30
2017-09-11T08:49:49.937Z,91.40
2017-09-11T08:52:18.409Z,91.20
2017-09-11T08:54:46.264Z,91.20
2017-09-11T08:57:14.127Z,91.20
2017-09-11T08:59:41.828Z,91.40
2017-09-11T09:02:10.376Z,91.30
2017-09-11T09:04:38.244Z,91.00
2017-09-11T09:07:06.110Z,91.40
2017-09-11T09:09:33.814Z,91.20
2017-09-11T09:12:02.288Z,90.80
2017-09-11T09:14:30.765Z,90.80
2017-09-11T09:16:59.317Z,91.40
2017-09-11T09:19:27.184Z,91.40
2017-09-11T09:21:55.051Z,91.90
2017-09-11T09:24:22.841Z,91.70
2017-09-11T09:26:51.399Z,91.50
2017-09-11T09:29:19.267Z,91.40
2017-09-11T09:31:47.134Z,91.50
2017-09-11T09:34:15.002Z,91.40
2017-09-11T09:36:42.869Z,91.80
2017-09-11T09:39:10.586Z,91.80
2017-09-11T09:41:38.295Z,91.60
2017-09-11T09:44:06.019Z,91.80
2017-09-11T09:46:33.738Z,91.10
2017-09-11T09:49:01.454Z,91.00
2017-09-11T09:51:29.167Z,90.80
2017-09-11T09:53:57.019Z,90.90
2017-09-11T09:56:24.885Z,90.60
2017-09-11T09:58:52.752Z,90.50
2017-09-11T10:01:20.459Z,90.40
2017-09-11T10:03:48.940Z,90.60
2017-09-11T10:06:17.410Z,89.10
2017-09-11T10:08:45.898Z,86.00
2017-09-11T10:11:14.376Z,84.40
2017-09-11T10:13:43.033Z,82.60
2017-09-11T10:16:10.759Z,82.50
2017-09-11T10:18:38.470Z,81.90
2017-09-11T10:21:06.179Z,80.20
2017-09-11T10:23:33.879Z,79.10
2017-09-11T10:26:01.591Z,78.50
2017-09-11T10:28:30.090Z,77.50
2017-09-11T10:30:57.902Z,77.50
2017-09-11T10:33:25.762Z,79.00
2017-09-11T10:35:53.629Z,78.70
2017-09-11T10:38:21.500Z,76.10
2017-09-11T10:40:49.199Z,76.60
2017-09-11T10:43:17.714Z,71.00
2017-09-11T10:45:45.463Z,70.90
2017-09-11T10:48:13.177Z,72.60
2017-09-11T10:50:40.880Z,70.80
2017-09-11T10:53:09.350Z,64.90
2017-09-11T10:55:37.818Z,64.90
2017-09-11T10:58:05.665Z,64.70
2017-09-11T11:00:33.363Z,63.30
2017-09-11T11:03:01.838Z,65.30
2017-09-11T11:05:30.318Z,65.00
2017-09-11T11:07:58.794Z,64.70
2017-09-11T11:10:26.523Z,64.70
2017-09-11T11:12:54.405Z,65.60
2017-09-11T11:15:22.271Z,66.10
2017-09-11T11:17:50.137Z,66.90
2017-09-11T11:20:18.009Z,66.90
2017-09-11T11:22:45.872Z,65.90
2017-09-11T11:25:13.741Z,67.10
2017-09-11T11:27:41.463Z,66.70
2017-09-11T11:30:09.271Z,64.80
2017-09-11T11:32:37.137Z,63.90
2017-09-11T11:35:04.850Z,66.00
2017-09-11T11:37:32.666Z,67.20
2017-09-11T11:40:00.386Z,68.50
2017-09-11T11:42:28.101Z,64.30
2017-09-11T11:44:55.818Z,65.10
2017-09-11T11:47:23.538Z,64.20
2017-09-11T11:49:51.244Z,65.90
2017-09-11T11:52:19.052Z,64.80
2017-09-11T11:54:46.762Z,64.30
2017-09-11T11:57:14.478Z,64.30
2017-09-11T11:59:42.187Z,65.70
2017-09-11T12:02:10.012Z,63.30
2017-09-11T12:04:37.877Z,64.70
2017-09-11T12:07:05.744Z,65.90
2017-09-11T12:09:33.615Z,66.00
2017-09-11T12:12:01.483Z,62.20
2017-09-11T12:14:29.178Z,61.10
2017-09-11T12:16:57.659Z,60.90
2017-09-11T12:19:26.207Z,61.10
2017-09-11T12:21:54.074Z,61.10
2017-09-11T12:24:21.940Z,62.00
2017-09-11T12:26:49.808Z,58.50
2017-09-11T12:29:17.681Z,58.80
2017-09-11T12:31:45.440Z,59.30
2017-09-11T12:34:13.307Z,58.90
2017-09-11T12:36:41.175Z,61.00
2017-09-11T12:39:08.888Z,60.20
2017-09-11T12:41:36.600Z,61.20
2017-09-11T12:44:04.309Z,62.30
2017-09-11T12:46:32.951Z,62.90
2017-09-11T12:49:00.817Z,62.80
2017-09-11T12:51:28.518Z,61.50
2017-09-11T12:53:56.995Z,61.80
2017-09-11T12:56:24.702Z,61.80
2017-09-11T12:58:52.440Z,60.30
2017-09-11T13:01:20.155Z,60.90
2017-09-11T13:03:47.866Z,61.70
2017-09-11T13:06:15.684Z,59.30
2017-09-11T13:08:43.551Z,58.30
2017-09-11T13:11:11.272Z,57.70
2017-09-11T13:13:39.032Z,56.70
2017-09-11T13:16:06.747Z,55.80
2017-09-11T13:18:34.462Z,56.50
2017-09-11T13:21:02.171Z,55.90
2017-09-11T13:23:29.879Z,54.00
2017-09-11T13:25:58.355Z,49.40
2017-09-11T13:28:26.840Z,50.00
2017-09-11T13:30:55.318Z,50.60
2017-09-11T13:33:23.795Z,49.10
2017-09-11T13:35:52.323Z,48.40
2017-09-11T13:38:20.043Z,48.40
2017-09-11T13:40:48.694Z,49.80
2017-09-11T13:43:16.490Z,49.80
2017-09-11T13:45:44.966Z,50.80
2017-09-11T13:48:13.471Z,50.30
2017-09-11T13:50:41.174Z,50.50
2017-09-11T13:53:08.885Z,51.00
2017-09-11T13:55:37.350Z,53.40
2017-09-11T13:58:05.059Z,53.30
2017-09-11T14:00:32.791Z,52.70
2017-09-11T14:03:01.263Z,52.50
2017-09-11T14:05:29.108Z,52.40
2017-09-11T14:07:56.976Z,52.90
2017-09-11T14:10:24.741Z,53.70
2017-09-11T14:12:52.606Z,53.50
2017-09-11T14:15:20.330Z,54.80
2017-09-11T14:17:48.049Z,53.90
2017-09-11T14:20:15.771Z,52.80
2017-09-11T14:22:43.495Z,52.90
2017-09-11T14:25:12.023Z,51.70
2017-09-11T14:27:39.729Z,51.70
2017-09-11T14:30:07.443Z,51.70
2017-09-11T14:32:35.154Z,53.50
2017-09-11T14:35:02.870Z,54.10
2017-09-11T14:37:30.577Z,54.10
2017-09-11T14:39:58.298Z,55.70
2017-09-11T14:42:26.015Z,57.20
2017-09-11T14:44:53.777Z,57.10
2017-09-11T14:47:21.486Z,58.40
2017-09-11T14:49:49.286Z,59.00
2017-09-11T14:52:17.002Z,57.90
2017-09-11T14:54:44.706Z,58.80
2017-09-11T14:57:12.581Z,59.80
2017-09-11T14:59:40.447Z,58.90
2017-09-11T15:02:08.316Z,60.00
2017-09-11T15:04:36.088Z,60.70
2017-09-11T15:07:03.794Z,61.50
2017-09-11T15:09:31.497Z,62.80
2017-09-11T15:11:59.377Z,65.20
2017-09-11T15:14:27.245Z,66.90
2017-09-11T15:16:55.110Z,68.50
2017-09-11T15:19:22.980Z,64.90
2017-09-11T15:21:50.849Z,61.40
2017-09-11T15:24:18.716Z,60.80
2017-09-11T15:26:46.423Z,60.30
2017-09-11T15:29:14.128Z,60.80
2017-09-11T15:31:42.006Z,58.40
2017-09-11T15:34:09.872Z,59.20
2017-09-11T15:36:38.383Z,58.00
2017-09-11T15:39:06.939Z,59.30
2017-09-11T15:41:34.806Z,59.30
2017-09-11T15:44:02.510Z,59.70
2017-09-11T15:46:31.052Z,59.60
2017-09-11T15:48:58.817Z,59.50
2017-09-11T15:51:26.685Z,60.20
2017-09-11T15:53:54.389Z,60.10
2017-09-11T15:56:22.863Z,60.50
2017-09-11T15:58:51.413Z,61.40
2017-09-11T16:01:19.138Z,61.30
2017-09-11T16:03:46.943Z,61.50
2017-09-11T16:06:14.641Z,62.00
2017-09-11T16:08:43.119Z,63.30
2017-09-11T16:11:11.596Z,64.10
2017-09-11T16:13:40.087Z,64.60
2017-09-11T16:16:08.605Z,65.20
2017-09-11T16:19:15.468Z,64.50
2017-09-11T16:21:43.174Z,65.30
2017-09-11T16:24:10.903Z,65.10
2017-09-11T16:26:38.742Z,65.40
2017-09-11T16:29:07.258Z,64.90
2017-09-11T16:31:34.961Z,64.90
2017-09-11T16:36:36.670Z,65.00
2017-09-11T16:39:05.213Z,63.60
2017-09-11T16:41:32.931Z,63.50
2017-09-11T16:44:00.679Z,64.40
2017-09-11T16:46:29.187Z,63.70
2017-09-11T16:48:56.891Z,63.60
2017-09-11T16:51:24.596Z,64.20
2017-09-11T16:53:53.070Z,66.70
2017-09-11T16:56:21.547Z,67.40
2017-09-11T16:58:50.072Z,67.70
2017-09-11T17:01:17.827Z,67.70
2017-09-11T17:03:45.530Z,67.20
2017-09-11T17:06:13.250Z,67.80
2017-09-11T17:08:40.958Z,68.70
2017-09-11T17:11:08.670Z,70.20
2017-09-11T17:13:36.374Z,70.40
2017-09-11T17:16:04.086Z,71.10
2017-09-11T17:18:32.584Z,72.10
2017-09-11T17:21:00.359Z,72.10
2017-09-11T17:23:28.110Z,72.70
2017-09-11T17:25:55.810Z,72.90
2017-09-11T17:28:23.525Z,73.40
2017-09-11T17:30:51.996Z,73.80
2017-09-11T17:33:20.480Z,74.30
2017-09-11T17:35:48.959Z,74.60
2017-09-11T17:38:17.478Z,74.90
2017-09-11T17:40:45.239Z,74.80
2017-09-11T17:43:13.019Z,75.30
2017-09-11T17:45:40.767Z,75.20
2017-09-11T17:48:08.518Z,75.50
2017-09-11T17:50:37.034Z,76.10
2017-09-11T17:53:04.787Z,76.10
2017-09-11T17:55:32.499Z,76.00
2017-09-11T17:58:00.263Z,76.20
2017-09-11T18:00:27.973Z,76.60
2017-09-11T18:02:55.687Z,77.30
2017-09-11T18:05:23.403Z,77.70
2017-09-11T18:07:51.119Z,78.50
2017-09-11T18:10:18.830Z,78.70
2017-09-11T18:12:46.587Z,79.60
2017-09-11T18:15:14.394Z,80.00
2017-09-11T18:17:42.151Z,80.40
2017-09-11T18:20:09.874Z,80.90
2017-09-11T18:22:37.591Z,81.20
2017-09-11T18:25:05.311Z,81.40
2017-09-11T18:27:33.031Z,81.50
2017-09-11T18:30:00.741Z,82.10
2017-09-11T18:32:28.474Z,82.40
2017-09-11T18:34:57.014Z,82.80
2017-09-11T18:37:24.723Z,82.70
2017-09-11T18:39:53.271Z,82.50
2017-09-11T18:42:20.984Z,82.50
2017-09-11T18:44:49.506Z,83.20
2017-09-11T18:47:17.219Z,83.20
2017-09-11T18:49:45.703Z,84.00
2017-09-11T18:52:14.183Z,83.50
2017-09-11T18:54:42.679Z,83.50
2017-09-11T18:57:10.419Z,83.40
2017-09-11T18:59:38.140Z,83.50
2017-09-11T19:02:05.850Z,84.20
2017-09-11T19:04:34.330Z,84.60
2017-09-11T19:07:02.808Z,84.70
2017-09-11T19:09:30.520Z,84.70
2017-09-11T19:11:58.226Z,84.60
2017-09-11T19:14:25.930Z,84.60
2017-09-11T19:16:53.638Z,84.70
2017-09-11T19:19:21.346Z,85.10
2017-09-11T19:21:49.819Z,84.60
2017-09-11T19:24:18.302Z,84.60
2017-09-11T19:26:46.818Z,84.50
2017-09-11T19:29:14.537Z,84.50
2017-09-11T19:31:42.246Z,84.30
2017-09-11T19:34:09.945Z,84.70
2017-09-11T19:36:37.686Z,84.40
2017-09-11T19:39:05.399Z,84.30
2017-09-11T19:41:33.870Z,83.70
2017-09-11T19:44:01.582Z,83.70
2017-09-11T19:46:29.294Z,83.30
2017-09-11T19:48:57.023Z,83.20
2017-09-11T19:51:24.762Z,83.80
2017-09-11T19:53:52.502Z,82.90
2017-09-11T19:56:20.982Z,83.00
2017-09-11T19:58:50.454Z,82.80
2017-09-11T20:01:19.090Z,82.90
2017-09-11T20:03:46.796Z,82.80
2017-09-11T20:06:16.385Z,83.00
2017-09-11T20:08:45.023Z,83.00
2017-09-11T20:11:13.512Z,82.40
2017-09-11T20:13:42.072Z,82.70
2017-09-11T20:16:09.806Z,82.60
2017-09-11T20:18:37.574Z,82.40
2017-09-11T20:21:05.301Z,82.20
2017-09-11T20:23:33.027Z,82.20
2017-09-11T20:26:00.739Z,82.30
2017-09-11T20:28:28.451Z,82.50
2017-09-11T20:30:56.156Z,82.10
2017-09-11T20:33:24.632Z,82.30
2017-09-11T20:35:52.347Z,82.30
2017-09-11T20:38:20.055Z,82.20
2017-09-11T20:40:48.569Z,81.70
2017-09-11T20:43:16.330Z,81.60
2017-09-11T20:45:44.231Z,81.60
2017-09-11T20:48:11.978Z,81.80
2017-09-11T20:50:39.687Z,81.80
2017-09-11T20:53:07.399Z,81.60
2017-09-11T20:55:35.101Z,81.50
2017-09-11T20:58:02.810Z,81.70
2017-09-11T21:00:30.537Z,81.50
2017-09-11T21:02:58.244Z,81.10
2017-09-11T21:05:25.966Z,81.00
2017-09-11T21:07:53.730Z,81.00
2017-09-11T21:10:21.495Z,80.70
2017-09-11T21:12:49.198Z,80.40
2017-09-11T21:15:16.903Z,80.60
2017-09-11T21:17:44.613Z,80.30
2017-09-11T21:20:12.383Z,80.40
2017-09-11T21:22:40.102Z,80.20
2017-09-11T21:25:07.816Z,80.40
2017-09-11T21:27:35.531Z,80.90
2017-09-11T21:30:03.259Z,80.60
2017-09-11T21:32:31.000Z,80.60
2017-09-11T21:34:58.719Z,81.00
2017-09-11T21:37:26.421Z,80.80
2017-09-11T21:39:55.061Z,81.40
2017-09-11T21:42:22.931Z,81.40
2017-09-11T21:44:50.798Z,81.20
2017-09-11T21:47:18.663Z,81.50
2017-09-11T21:49:46.369Z,81.80
2017-09-11T21:52:14.855Z,81.20
2017-09-11T21:54:43.338Z,81.10
2017-09-11T21:57:11.049Z,81.10
2017-09-11T21:59:39.523Z,81.40
2017-09-11T22:02:07.229Z,81.30
2017-09-11T22:04:35.707Z,81.20
2017-09-11T22:07:04.179Z,81.00
2017-09-11T22:09:31.886Z,80.90
2017-09-11T22:11:59.688Z,80.50
2017-09-11T22:14:27.402Z,81.10
2017-09-11T22:16:55.114Z,80.40
2017-09-11T22:19:22.825Z,80.50
2017-09-11T22:21:51.298Z,80.40
2017-09-11T22:24:19.775Z,80.80
2017-09-11T22:26:48.259Z,80.80
2017-09-11T22:29:16.735Z,80.40
2017-09-11T22:31:44.444Z,80.40
2017-09-11T22:34:12.153Z,80.60
2017-09-11T22:36:39.857Z,80.70
2017-09-11T22:39:07.566Z,80.80
2017-09-11T22:41:35.319Z,81.10
2017-09-11T22:44:03.031Z,80.90
2017-09-11T22:46:31.559Z,80.90
2017-09-11T22:48:59.307Z,80.80
2017-09-11T22:51:27.006Z,81.20
2017-09-11T22:53:54.706Z,80.20
2017-09-11T22:56:23.183Z,80.20
2017-09-11T22:58:51.650Z,80.20
2017-09-11T23:01:19.362Z,80.20
2017-09-11T23:03:47.078Z,80.10
2017-09-11T23:06:14.785Z,80.20
2017-09-11T23:08:42.491Z,80.90
2017-09-11T23:11:10.198Z,80.50
2017-09-11T23:13:37.908Z,80.20
2017-09-11T23:16:05.612Z,80.30
2017-09-11T23:18:34.106Z,80.70
2017-09-11T23:21:01.807Z,80.60
2017-09-11T23:23:29.515Z,80.80
2017-09-11T23:25:57.990Z,80.70
2017-09-11T23:28:25.695Z,80.70
2017-09-11T23:30:53.398Z,80.70
2017-09-11T23:33:21.098Z,81.00
2017-09-11T23:35:49.567Z,81.00
2017-09-11T23:38:18.037Z,81.10
2017-09-11T23:40:45.754Z,81.10
2017-09-11T23:43:13.458Z,81.40
2017-09-11T23:45:41.162Z,81.20
2017-09-11T23:48:08.862Z,81.50
2017-09-11T23:50:36.633Z,81.20
2017-09-11T23:53:04.500Z,81.50
2017-09-11T23:55:32.367Z,81.40
2017-09-11T23:58:00.234Z,81.60
